Time;durP1;ratioP1;P1;durP2;ratioP2;P2;SDS_P1;SDS_P2;PMS_P1;PMS_P2;Temp;Humidity;BMP_temperature;BMP_pressure;BME280_temperature;BME280_humidity;BME280_pressure;Samples;Min_cycle;Max_cycle;Signal;HPM_P1;HPM_P2
2020/12/26 00:01:13;;;;;;;3.63;1.98;;;;;;;6.64;87.88;101811.03;5017076;28;20083;-79
2020/12/26 00:03:41;;;;;;;1.63;1.42;;;;;;;6.64;87.89;101796.44;5016979;28;20044;-79
2020/12/26 00:06:08;;;;;;;3.42;1.70;;;;;;;6.65;87.87;101787.88;5031803;28;20133;-78
2020/12/26 00:08:34;;;;;;;3.08;2.60;;;;;;;6.67;87.72;101791.16;5050712;28;20103;-78
2020/12/26 00:11:02;;;;;;;1.52;1.42;;;;;;;6.68;87.88;101781.81;5050847;28;20081;-78
2020/12/26 00:13:28;;;;;;;1.70;1.52;;;;;;;6.69;87.70;101777.94;5048122;28;20104;-80
2020/12/26 00:15:54;;;;;;;2.50;2.30;;;;;;;6.72;87.92;101785.59;5018265;28;20149;-79
2020/12/26 00:18:21;;;;;;;1.95;1.50;;;;;;;6.71;87.66;101783.97;5052100;28;20037;-81
2020/12/26 00:20:49;;;;;;;2.63;1.63;;;;;;;6.74;87.93;101772.38;5052153;28;20409;-78
2020/12/26 00:23:15;;;;;;;1.98;1.58;;;;;;;6.76;87.95;101763.81;5033494;28;20124;-78
2020/12/26 00:25:42;;;;;;;1.45;1.35;;;;;;;6.75;87.90;101759.44;5049837;28;20133;-78
2020/12/26 00:28:09;;;;;;;1.50;1.35;;;;;;;6.75;88.21;101760.25;5034689;28;20429;-77
2020/12/26 00:30:39;;;;;;;1.80;1.38;;;;;;;6.78;88.06;101758.03;5029316;28;20051;-78
2020/12/26 00:33:05;;;;;;;1.75;1.30;;;;;;;6.79;87.98;101754.97;5052320;28;20144;-78
2020/12/26 00:35:31;;;;;;;1.27;1.10;;;;;;;6.81;88.01;101740.91;5052873;28;20041;-79
2020/12/26 00:37:57;;;;;;;0.65;0.60;;;;;;;6.82;87.93;101728.78;5034697;28;20120;-78
2020/12/26 00:40:24;;;;;;;1.58;1.10;;;;;;;6.84;88.09;101726.56;5037736;28;20481;-79
2020/12/26 00:42:50;;;;;;;1.38;1.10;;;;;;;6.86;87.90;101716.09;5056326;28;20048;-80
2020/12/26 00:45:16;;;;;;;1.70;1.10;;;;;;;6.88;87.92;101713.84;5056579;28;20064;-78
2020/12/26 00:47:43;;;;;;;1.40;1.30;;;;;;;6.90;88.01;101711.63;5042177;28;20128;-79
2020/12/26 00:50:10;;;;;;;1.25;1.15;;;;;;;6.91;87.96;101702.25;5036069;28;20452;-80
2020/12/26 00:52:37;;;;;;;2.25;1.27;;;;;;;6.92;87.91;101703.88;5035548;28;20498;-79
2020/12/26 00:55:03;;;;;;;2.33;1.30;;;;;;;6.91;88.07;101696.75;5035751;28;20108;-80
2020/12/26 00:57:29;;;;;;;1.30;1.20;;;;;;;6.90;88.22;101706.09;5018394;28;20065;-80
2020/12/26 00:59:55;;;;;;;3.22;1.40;;;;;;;6.89;88.19;101705.28;5036433;28;20442;-79
2020/12/26 01:02:22;;;;;;;3.22;1.40;;;;;;;6.86;88.31;101714.13;5036170;28;20123;-80
2020/12/26 01:04:48;;;;;;;3.38;2.25;;;;;;;6.86;88.45;101721.59;5038908;28;20041;-79
2020/12/26 01:07:15;;;;;;;1.60;1.50;;;;;;;6.86;88.55;101716.09;5018393;28;20088;-80
2020/12/26 01:09:41;;;;;;;1.45;1.30;;;;;;;6.84;88.81;101729.31;5015293;28;20463;-81
2020/12/26 01:12:07;;;;;;;5.03;1.10;;;;;;;6.85;88.75;101714.44;5032346;28;20041;-80
2020/12/26 01:14:35;;;;;;;1.60;1.50;;;;;;;6.86;88.99;101705.09;5035610;28;20387;-80
2020/12/26 01:17:02;;;;;;;1.38;1.27;;;;;;;6.87;89.06;101706.69;5035038;28;20061;-79
2020/12/26 01:19:28;;;;;;;1.90;1.65;;;;;;;6.87;88.91;101712.19;5035845;28;20120;-80
2020/12/26 01:21:55;;;;;;;1.30;0.90;;;;;;;6.89;88.75;101704.47;5024673;28;20057;-79
2020/12/26 01:24:22;;;;;;;1.40;0.88;;;;;;;6.90;88.60;101700.59;5035513;28;20401;-80
2020/12/26 01:26:49;;;;;;;1.20;1.10;;;;;;;6.92;88.65;101698.38;5036069;28;20030;-80
2020/12/26 01:29:16;;;;;;;3.60;1.30;;;;;;;6.93;88.86;101694.50;5035613;28;20033;-80
2020/12/26 01:31:47;;;;;;;1.63;1.30;;;;;;;6.93;89.03;101689.00;5035561;28;20065;-80
2020/12/26 01:34:14;;;;;;;1.08;0.98;;;;;;;6.95;89.11;101684.00;5023677;28;20123;-80
2020/12/26 01:36:40;;;;;;;1.38;1.10;;;;;;;6.94;89.02;101665.84;5034938;28;20116;-79
2020/12/26 01:39:06;;;;;;;3.58;1.02;;;;;;;6.93;89.11;101665.06;5018473;28;20065;-79
2020/12/26 01:41:33;;;;;;;0.80;0.80;;;;;;;6.93;89.04;101665.06;5035408;28;20037;-81
2020/12/26 01:44:02;;;;;;;1.17;0.82;;;;;;;6.94;89.26;101674.09;5017489;28;20545;-79
2020/12/26 01:46:30;;;;;;;2.17;0.98;;;;;;;6.95;89.14;101675.75;5020165;28;20054;-80
2020/12/26 01:48:59;;;;;;;0.90;0.80;;;;;;;6.93;89.10;101667.81;5047164;28;20116;-79
2020/12/26 01:51:30;;;;;;;1.83;0.93;;;;;;;6.92;89.51;101665.34;5037090;28;20045;-79
2020/12/26 01:53:57;;;;;;;2.92;0.98;;;;;;;6.91;89.35;101664.50;5031950;28;20041;-79
2020/12/26 01:56:25;;;;;;;1.48;1.20;;;;;;;6.94;88.93;101674.94;5018765;28;20045;-80
2020/12/26 01:58:52;;;;;;;1.10;0.80;;;;;;;6.93;89.35;101662.28;5018060;28;20046;-79
2020/12/26 02:01:30;;;;;;;2.80;0.98;;;;;;;6.94;89.50;101661.16;5001887;28;20065;-80
2020/12/26 02:03:57;;;;;;;1.27;0.75;;;;;;;6.96;89.45;101667.22;5017293;28;20084;-80
2020/12/26 02:06:23;;;;;;;2.33;1.17;;;;;;;6.96;89.16;101669.13;5042435;28;20048;-80
2020/12/26 02:08:50;;;;;;;1.15;1.10;;;;;;;6.97;89.12;101668.00;5055426;28;20112;-80
2020/12/26 02:11:16;;;;;;;0.70;0.70;;;;;;;6.97;89.42;101673.50;5043939;28;20116;-80
2020/12/26 02:13:42;;;;;;;0.90;0.90;;;;;;;6.98;89.42;101655.88;5047939;28;20093;-80
2020/12/26 02:16:17;;;;;;;0.98;0.98;;;;;;;6.98;89.49;101659.47;5041936;28;20031;-80
2020/12/26 02:18:44;;;;;;;0.80;0.80;;;;;;;6.98;89.02;101647.63;5041648;28;20092;-80
2020/12/26 02:21:11;;;;;;;0.88;0.88;;;;;;;6.97;89.21;101651.47;5038877;28;20120;-80
2020/12/26 02:23:43;;;;;;;0.73;0.73;;;;;;;6.95;89.28;101634.47;5043961;28;20101;-80
2020/12/26 02:26:10;;;;;;;0.77;0.70;;;;;;;6.94;89.20;101630.06;5031404;28;20048;-80
2020/12/26 02:28:37;;;;;;;0.80;0.80;;;;;;;6.92;89.04;101632.31;5020141;28;20447;-79
2020/12/26 02:31:08;;;;;;;1.20;1.10;;;;;;;6.93;89.27;101628.44;5036982;28;20450;-81
2020/12/26 02:33:34;;;;;;;2.05;1.27;;;;;;;6.94;89.31;101624.56;5042703;28;20073;-79
2020/12/26 02:36:02;;;;;;;1.52;0.68;;;;;;;6.94;89.44;101613.53;5043866;28;20049;-80
2020/12/26 02:38:28;;;;;;;1.50;1.02;;;;;;;6.96;89.25;101603.06;5043560;28;20112;-80
2020/12/26 02:40:55;;;;;;;3.35;1.15;;;;;;;6.97;89.37;101607.44;5034383;28;20034;-80
2020/12/26 02:43:23;;;;;;;1.55;0.80;;;;;;;6.97;89.34;101599.19;5035272;28;20064;-79
2020/12/26 02:45:54;;;;;;;1.38;0.70;;;;;;;6.98;89.39;101581.56;5036965;28;20065;-80
2020/12/26 02:48:24;;;;;;;1.60;0.93;;;;;;;6.98;89.51;101587.06;5053257;28;20371;-81
2020/12/26 02:50:55;;;;;;;2.85;0.70;;;;;;;6.97;89.05;101588.16;5052330;28;20041;-79
2020/12/26 02:53:22;;;;;;;1.27;0.70;;;;;;;6.97;88.94;101579.91;5053307;28;20128;-80
2020/12/26 02:55:49;;;;;;;2.80;0.80;;;;;;;6.96;88.78;101575.53;5054466;28;20041;-79
2020/12/26 02:58:15;;;;;;;3.72;0.60;;;;;;;6.92;88.28;101580.00;5054162;28;20405;-80
2020/12/26 03:00:42;;;;;;;2.53;0.82;;;;;;;6.88;87.76;101577.06;5035682;28;20091;-80
2020/12/26 03:03:09;;;;;;;3.20;0.80;;;;;;;6.86;87.45;101578.47;5035708;28;20037;-79
2020/12/26 03:05:39;;;;;;;3.13;0.93;;;;;;;6.83;87.15;101574.34;5053891;28;20037;-80
2020/12/26 03:08:05;;;;;;;9.98;1.10;;;;;;;6.85;87.19;101576.81;5053356;28;20080;-80
2020/12/26 03:10:31;;;;;;;5.80;1.27;;;;;;;6.84;86.77;101569.66;5053688;28;20099;-81
2020/12/26 03:12:58;;;;;;;11.13;1.63;;;;;;;6.84;86.83;101567.75;5053049;28;20037;-80
2020/12/26 03:15:24;;;;;;;2.65;1.20;;;;;;;6.83;86.42;101571.59;5036081;28;20037;-79
2020/12/26 03:17:50;;;;;;;2.58;1.05;;;;;;;6.81;86.31;101573.03;5052842;28;20047;-81
2020/12/26 03:20:17;;;;;;;4.25;0.90;;;;;;;6.78;85.76;101566.19;5033695;28;20068;-80
2020/12/26 03:22:43;;;;;;;4.10;1.05;;;;;;;6.75;85.60;101572.31;5052847;28;20064;-79
2020/12/26 03:25:09;;;;;;;14.02;3.05;;;;;;;6.68;85.50;101567.16;5035841;28;20037;-80
2020/12/26 03:27:36;;;;;;;4.47;1.73;;;;;;;6.65;85.29;101554.00;5036239;28;20386;-80
2020/12/26 03:30:04;;;;;;;14.50;2.40;;;;;;;6.64;85.19;101549.63;5035139;28;20453;-80
2020/12/26 03:32:31;;;;;;;10.75;1.65;;;;;;;6.62;85.13;101546.34;5053946;28;20056;-80
2020/12/26 03:34:57;;;;;;;9.73;2.92;;;;;;;6.62;84.95;101535.34;5053268;28;20091;-79
2020/12/26 03:37:23;;;;;;;5.40;1.20;;;;;;;6.62;84.95;101542.78;5053120;28;20481;-79
2020/12/26 03:39:49;;;;;;;8.07;1.77;;;;;;;6.60;84.45;101539.50;5035981;28;20128;-79
2020/12/26 03:42:16;;;;;;;12.95;1.23;;;;;;;6.59;84.63;101552.44;5017153;28;20064;-80
2020/12/26 03:44:42;;;;;;;14.00;1.20;;;;;;;6.55;84.21;101551.41;5018334;28;20400;-80
2020/12/26 03:47:10;;;;;;;13.90;2.70;;;;;;;6.53;84.31;101547.34;5052579;28;20053;-79
2020/12/26 03:49:37;;;;;;;10.95;2.05;;;;;;;6.49;84.20;101538.84;5031551;28;20068;-80
2020/12/26 03:52:07;;;;;;;8.00;1.88;;;;;;;6.46;84.27;101528.44;5030619;28;20071;-79
2020/12/26 03:54:33;;;;;;;9.63;1.58;;;;;;;6.45;84.14;101523.25;5052669;28;20462;-80
2020/12/26 03:56:59;;;;;;;5.97;1.20;;;;;;;6.48;84.09;101520.72;5052707;28;20033;-80
2020/12/26 03:59:26;;;;;;;9.68;1.83;;;;;;;6.46;83.62;101514.69;5052526;28;20060;-81
2020/12/26 04:01:52;;;;;;;13.38;2.25;;;;;;;6.46;83.52;101516.66;5052528;28;20555;-80
2020/12/26 04:04:18;;;;;;;10.07;2.20;;;;;;;6.48;83.48;101506.97;5052359;28;20075;-81
2020/12/26 04:06:45;;;;;;;10.57;1.50;;;;;;;6.48;83.39;101506.16;5053536;28;20474;-80
2020/12/26 04:09:12;;;;;;;7.38;1.20;;;;;;;6.49;83.23;101486.59;5052213;28;20037;-79
2020/12/26 04:11:39;;;;;;;10.18;1.83;;;;;;;6.49;83.14;101502.28;5052510;28;20048;-79
2020/12/26 04:14:06;;;;;;;14.02;2.53;;;;;;;6.49;83.02;101505.03;5051106;28;20079;-80
2020/12/26 04:16:33;;;;;;;6.45;1.67;;;;;;;6.47;83.03;101493.50;5052559;28;20095;-80
2020/12/26 04:19:02;;;;;;;6.57;1.05;;;;;;;6.49;83.05;101480.25;5052337;28;20041;-79
2020/12/26 04:21:28;;;;;;;5.78;1.60;;;;;;;6.47;82.88;101483.31;5052675;28;20082;-80
2020/12/26 04:23:54;;;;;;;10.45;1.70;;;;;;;6.47;nan;101483.31;5034369;28;20477;-80
2020/12/26 04:26:22;;;;;;;14.77;2.15;;;;;;;6.48;82.76;101473.97;5052629;28;20043;-80
2020/12/26 04:28:50;;;;;;;13.77;2.40;;;;;;;6.48;83.25;101468.47;5059439;28;20048;-80
2020/12/26 04:31:17;;;;;;;11.85;3.60;;;;;;;6.48;83.56;101467.66;5058041;28;20072;-80
2020/12/26 04:33:43;;;;;;;10.57;2.03;;;;;;;6.46;83.16;101458.88;5052048;28;20559;-79
2020/12/26 04:36:10;;;;;;;14.98;2.75;;;;;;;6.46;83.06;101451.44;5051137;28;20128;-79
2020/12/26 04:38:36;;;;;;;11.48;1.65;;;;;;;6.47;82.98;101457.75;5052278;28;20120;-80
2020/12/26 04:41:03;;;;;;;16.30;2.40;;;;;;;6.46;82.71;101469.88;5052301;28;20071;-79
2020/12/26 04:43:31;;;;;;;12.73;2.88;;;;;;;6.47;82.95;101449.50;5051487;28;20036;-80
2020/12/26 04:45:59;;;;;;;14.02;3.15;;;;;;;6.47;82.87;101439.31;5052212;28;20041;-79
2020/12/26 04:48:27;;;;;;;7.35;2.15;;;;;;;6.45;82.58;101427.00;5019779;28;20045;-79
2020/12/26 04:51:00;;;;;;;9.18;1.95;;;;;;;6.47;82.58;101405.50;5014614;28;20041;-79
2020/12/26 04:53:33;;;;;;;9.05;2.03;;;;;;;6.46;82.36;101410.16;5032042;28;20087;-80
2020/12/26 04:56:03;;;;;;;18.20;3.08;;;;;;;6.44;82.14;101398.66;5032861;28;20092;-80
2020/12/26 04:58:30;;;;;;;13.85;2.30;;;;;;;6.44;82.49;101401.41;5031684;28;20038;-80
2020/12/26 05:01:05;;;;;;;12.88;2.55;;;;;;;6.46;82.48;101390.13;5032337;28;20043;-79
2020/12/26 05:03:35;;;;;;;16.50;2.38;;;;;;;6.43;82.32;101382.47;5020954;28;20041;-79
2020/12/26 05:06:05;;;;;;;19.13;2.92;;;;;;;6.42;82.14;101387.16;5032285;28;20393;-79
2020/12/26 05:08:33;;;;;;;12.68;1.92;;;;;;;6.43;81.95;101377.78;5032038;28;20045;-80
2020/12/26 05:11:00;;;;;;;13.27;2.72;;;;;;;6.43;82.09;101383.28;5031479;28;20116;-80
2020/12/26 05:13:27;;;;;;;15.50;2.50;;;;;;;6.43;82.07;101383.28;4998327;28;20042;-80
2020/12/26 05:15:54;;;;;;;12.65;2.70;;;;;;;6.43;82.06;101377.78;5032330;28;20041;-80
2020/12/26 05:18:21;;;;;;;16.42;2.42;;;;;;;6.42;81.79;101376.16;5017349;28;20543;-80
2020/12/26 05:20:49;;;;;;;16.17;2.58;;;;;;;6.43;81.72;101377.78;5037427;28;20033;-80
2020/12/26 05:23:17;;;;;;;13.25;2.40;;;;;;;6.42;81.22;101381.66;5031959;28;20120;-79
2020/12/26 05:25:46;;;;;;;8.77;2.20;;;;;;;6.41;80.92;101385.50;5032709;28;20116;-79
2020/12/26 05:28:25;;;;;;;14.20;2.90;;;;;;;6.42;81.09;101375.31;5017484;28;20072;-80
2020/12/26 05:30:53;;;;;;;14.73;2.15;;;;;;;6.42;80.84;101365.16;5035254;28;20040;-80
2020/12/26 05:33:20;;;;;;;10.65;2.45;;;;;;;6.41;80.72;101374.50;5035484;28;20041;-78
2020/12/26 05:35:49;;;;;;;20.88;2.53;;;;;;;6.40;80.45;101366.56;5037682;28;20037;-79
2020/12/26 05:38:19;;;;;;;20.55;5.47;;;;;;;6.41;80.52;101363.50;5035391;28;20065;-80
2020/12/26 05:40:47;;;;;;;14.27;2.65;;;;;;;6.39;80.33;101363.00;5017729;28;20072;-81
2020/12/26 05:43:15;;;;;;;10.07;2.22;;;;;;;6.40;80.41;101359.13;5035438;28;20061;-79
2020/12/26 05:45:42;;;;;;;12.13;2.10;;;;;;;6.40;80.25;101350.88;5035600;28;20073;-79
2020/12/26 05:48:14;;;;;;;15.75;2.60;;;;;;;6.39;80.17;101327.25;5053006;28;20053;-79
2020/12/26 05:50:41;;;;;;;16.58;4.20;;;;;;;6.40;80.12;101322.56;5049414;28;20097;-80
2020/12/26 05:53:08;;;;;;;15.27;2.80;;;;;;;6.39;79.86;101310.75;5055386;28;20487;-80
2020/12/26 05:55:42;;;;;;;15.90;2.47;;;;;;;6.39;79.75;101316.25;5055532;28;20133;-80
2020/12/26 05:58:10;;;;;;;19.75;3.35;;;;;;;6.40;80.07;101308.81;5054755;28;20041;-80
2020/12/26 06:00:38;;;;;;;10.23;1.77;;;;;;;6.39;79.96;101298.91;5054518;28;20434;-81
2020/12/26 06:03:30;;;;;;;19.17;2.60;;;;;;;6.39;79.59;101305.25;5036649;28;20545;-81
2020/12/26 06:06:01;;;;;;;18.60;2.47;;;;;;;6.41;80.00;101293.94;5037775;28;20095;-80
2020/12/26 06:08:29;;;;;;;15.97;2.70;;;;;;;6.40;80.02;101293.13;5055202;28;20073;-80
2020/12/26 06:10:57;;;;;;;23.85;2.72;;;;;;;6.41;79.87;101286.50;5070378;28;20124;-79
2020/12/26 06:13:28;;;;;;;13.43;3.45;;;;;;;6.42;79.97;101257.88;5045078;28;20120;-79
2020/12/26 06:15:55;;;;;;;18.23;3.72;;;;;;;6.42;80.06;101255.13;5055144;28;20131;-80
2020/12/26 06:18:23;;;;;;;11.90;2.92;;;;;;;6.42;80.03;101248.81;5054439;28;20125;-80
2020/12/26 06:20:51;;;;;;;15.18;2.20;;;;;;;6.42;80.24;101254.31;5037326;28;20041;-79
2020/12/26 06:23:23;;;;;;;17.20;2.72;;;;;;;6.41;80.21;101250.75;5054735;28;20037;-80
2020/12/26 06:25:52;;;;;;;17.25;3.88;;;;;;;6.41;80.33;101248.00;5054127;28;20041;-79
2020/12/26 06:28:29;;;;;;;16.20;2.72;;;;;;;6.40;80.43;101249.13;5055080;28;20037;-79
2020/12/26 06:31:06;;;;;;;12.93;2.97;;;;;;;6.40;80.47;101249.13;5054105;28;20102;-80
2020/12/26 06:33:40;;;;;;;15.38;3.28;;;;;;;6.39;80.48;101243.91;5036782;28;20068;-79
2020/12/26 06:36:08;;;;;;;14.35;2.67;;;;;;;6.38;80.75;101243.09;5053884;28;20047;-80
2020/12/26 06:38:37;;;;;;;13.68;3.08;;;;;;;6.37;81.07;101236.00;5053433;28;20406;-79
2020/12/26 06:41:17;;;;;;;14.25;3.67;;;;;;;6.36;81.33;101239.84;5054282;28;20033;-79
2020/12/26 06:43:47;;;;;;;14.95;3.30;;;;;;;6.37;81.20;101257.16;5054131;28;20037;-80
2020/12/26 06:46:13;;;;;;;26.05;3.50;;;;;;;6.35;81.44;101249.22;5053207;28;20033;-80
2020/12/26 06:48:40;;;;;;;14.40;3.85;;;;;;;6.33;81.67;101250.66;5054313;28;20560;-79
2020/12/26 06:51:27;;;;;;;14.95;2.10;;;;;;;6.28;81.78;101248.81;5036439;28;20041;-79
2020/12/26 06:53:55;;;;;;;21.15;2.80;;;;;;;6.29;81.96;101249.63;5054147;28;20556;-79
2020/12/26 06:59:04;;;;;;;13.40;2.15;;;;;;;6.29;81.74;101230.38;5035597;28;20099;-80
2020/12/26 07:01:32;;;;;;;13.68;2.13;;;;;;;6.27;81.85;101214.19;5052786;28;20045;-79
2020/12/26 07:04:10;;;;;;;16.95;2.85;;;;;;;6.28;81.78;101204.81;5054347;28;20068;-79
2020/12/26 07:06:45;;;;;;;11.10;3.50;;;;;;;6.29;81.81;101211.94;5054001;28;20045;-79
2020/12/26 07:09:13;;;;;;;10.63;3.60;;;;;;;6.30;81.54;101188.81;5049737;28;20124;-79
2020/12/26 07:11:51;;;;;;;13.75;2.83;;;;;;;6.30;81.67;101177.81;5053782;28;20044;-78
2020/12/26 07:14:31;;;;;;;17.20;2.35;;;;;;;6.29;81.29;101167.97;5051993;28;20485;-79
2020/12/26 07:16:59;;;;;;;18.58;2.80;;;;;;;6.31;81.35;101160.22;5053477;28;20069;-80
2020/12/26 07:19:44;;;;;;;13.77;2.20;;;;;;;6.32;80.92;101167.34;5053061;28;20068;-78
2020/12/26 07:22:12;;;;;;;10.88;2.00;;;;;;;6.32;80.90;101150.84;5053600;28;20444;-80
2020/12/26 07:24:45;;;;;;;13.35;2.13;;;;;;;6.33;80.93;101119.47;5035003;28;20103;-80
2020/12/26 07:27:16;;;;;;;19.10;3.92;;;;;;;6.32;80.59;101128.03;5053475;28;20572;-79
2020/12/26 07:29:52;;;;;;;13.25;3.25;;;;;;;6.32;80.57;101111.53;5042347;28;20087;-79
2020/12/26 07:32:50;;;;;;;15.27;2.65;;;;;;;6.29;80.22;101120.38;5034719;28;20033;-79
2020/12/26 07:35:19;;;;;;;21.95;6.03;;;;;;;6.25;80.31;101095.44;5053088;28;20061;-79
2020/12/26 07:37:55;;;;;;;12.68;2.92;;;;;;;6.25;80.30;101095.44;5053375;28;20041;-80
2020/12/26 07:40:26;;;;;;;10.52;2.00;;;;;;;6.24;80.27;101082.84;5052750;28;20037;-79
2020/12/26 07:42:52;;;;;;;13.55;2.33;;;;;;;6.26;80.40;101086.06;5052790;28;20477;-79
2020/12/26 07:45:22;;;;;;;11.77;2.85;;;;;;;6.26;80.45;101069.59;5052371;28;20048;-78
2020/12/26 07:47:50;;;;;;;19.50;2.95;;;;;;;6.27;80.55;101059.41;5052715;28;20052;-80
2020/12/26 07:50:19;;;;;;;27.77;3.10;;;;;;;6.25;80.33;101062.44;5034897;28;20037;-79
2020/12/26 07:52:46;;;;;;;9.70;2.10;;;;;;;6.26;80.21;101053.09;5034490;28;20401;-79
2020/12/26 07:55:12;;;;;;;18.80;2.97;;;;;;;6.26;80.48;101047.59;5035279;28;20049;-80
2020/12/26 07:57:39;;;;;;;13.52;1.77;;;;;;;6.25;80.49;101026.69;5051691;28;20076;-79
2020/12/26 08:00:19;;;;;;;12.95;2.40;;;;;;;6.23;80.66;101014.38;5052623;28;20127;-80
2020/12/26 08:02:53;;;;;;;15.43;3.00;;;;;;;6.20;80.67;101026.00;5035354;28;20037;-79
2020/12/26 08:05:33;;;;;;;14.73;2.33;;;;;;;6.18;80.73;101026.31;5035316;28;20085;-79
2020/12/26 08:08:00;;;;;;;16.98;2.28;;;;;;;6.17;80.59;101015.66;5052216;28;20041;-79
2020/12/26 08:10:33;;;;;;;25.52;2.70;;;;;;;6.13;80.85;100998.94;5034706;28;20045;-79
2020/12/26 08:13:06;;;;;;;11.05;1.90;;;;;;;6.12;80.91;100997.31;5052294;28;20065;-79
2020/12/26 08:15:32;;;;;;;17.38;2.42;;;;;;;6.11;80.88;100990.22;5034862;28;20071;-79
2020/12/26 08:18:00;;;;;;;10.68;4.25;;;;;;;6.09;80.82;100995.19;5052297;28;20148;-79
2020/12/26 08:20:34;;;;;;;10.65;2.35;;;;;;;6.10;80.66;100991.31;5052436;28;20473;-79
2020/12/26 08:23:00;;;;;;;14.52;3.40;;;;;;;6.10;80.71;100983.91;5052786;28;20064;-79
2020/12/26 08:25:29;;;;;;;12.20;2.67;;;;;;;6.11;80.72;100984.72;5051211;28;20037;-79
2020/12/26 08:27:56;;;;;;;16.13;2.65;;;;;;;6.12;80.78;100980.81;5057817;28;20064;-79
2020/12/26 08:30:33;;;;;;;17.63;3.03;;;;;;;6.14;80.66;101001.38;5072677;28;20131;-78
2020/12/26 08:33:18;;;;;;;10.23;2.08;;;;;;;6.17;80.40;100988.94;5066437;28;20208;-80
2020/12/26 08:35:54;;;;;;;14.63;1.95;;;;;;;6.18;80.28;100996.09;5044949;28;20040;-77
2020/12/26 08:38:30;;;;;;;16.08;3.35;;;;;;;6.21;80.06;100976.22;5052494;28;20048;-77
2020/12/26 08:40:59;;;;;;;17.60;3.95;;;;;;;6.24;80.09;100961.03;5052558;28;20037;-76
2020/12/26 08:43:27;;;;;;;14.73;2.78;;;;;;;6.25;79.91;100973.69;5052226;28;20482;-76
2020/12/26 08:45:53;;;;;;;13.77;1.95;;;;;;;6.23;80.20;100971.22;5052022;28;20120;-77
2020/12/26 08:48:22;;;;;;;16.23;2.75;;;;;;;6.22;79.71;100944.88;5051478;28;20052;-76
2020/12/26 08:50:59;;;;;;;19.42;3.97;;;;;;;6.20;79.61;100899.53;5052076;28;20045;-77
2020/12/26 08:53:33;;;;;;;20.13;2.92;;;;;;;6.20;79.81;100907.78;5052322;28;20051;-77
2020/12/26 08:56:00;;;;;;;12.57;1.88;;;;;;;6.18;79.85;100890.81;5033952;28;20429;-80
2020/12/26 08:58:33;;;;;;;14.30;3.05;;;;;;;6.14;79.56;100912.63;5035687;28;20049;-76
2020/12/26 09:01:01;;;;;;;23.08;3.50;;;;;;;6.16;79.53;100904.06;5055498;28;20163;-76
2020/12/26 09:03:30;;;;;;;19.60;2.67;;;;;;;6.17;79.29;100906.47;5057023;28;20045;-76
2020/12/26 09:05:58;;;;;;;13.95;3.13;;;;;;;6.20;79.56;100885.81;5056718;28;20164;-76
2020/12/26 09:08:33;;;;;;;17.75;2.58;;;;;;;6.19;79.13;100871.28;5056019;28;20389;-76
2020/12/26 09:11:08;;;;;;;10.30;1.92;;;;;;;6.22;78.89;100865.16;5054779;28;20037;-76
2020/12/26 09:13:47;;;;;;;14.95;2.35;;;;;;;6.24;79.38;100873.88;5036436;28;20077;-76
2020/12/26 09:16:14;;;;;;;24.05;3.25;;;;;;;6.25;79.25;100870.00;5054894;28;20037;-76
2020/12/26 09:18:43;;;;;;;21.23;3.45;;;;;;;6.28;79.24;100857.56;5036418;28;20084;-76
2020/12/26 09:21:26;;;;;;;14.82;3.13;;;;;;;6.27;78.94;100856.78;5054397;28;20038;-76
2020/12/26 09:23:55;;;;;;;17.05;2.83;;;;;;;6.26;79.34;100849.63;5054447;28;20045;-76
2020/12/26 09:26:23;;;;;;;19.17;2.80;;;;;;;6.27;79.02;100834.78;5036907;28;20072;-76
2020/12/26 09:28:54;;;;;;;20.48;4.97;;;;;;;6.30;79.08;100830.59;5051157;28;20112;-76
2020/12/26 09:31:23;;;;;;;13.27;2.70;;;;;;;6.30;78.92;100817.63;5055436;28;20076;-76
2020/12/26 09:33:50;;;;;;;13.13;3.08;;;;;;;6.32;79.16;100815.41;5054830;28;20139;-77
2020/12/26 09:36:19;;;;;;;12.75;3.78;;;;;;;6.33;78.97;100800.50;5054419;28;20036;-76
2020/12/26 09:38:47;;;;;;;16.08;2.50;;;;;;;6.34;78.62;100799.38;5054897;28;20044;-77
2020/12/26 09:41:22;;;;;;;13.80;2.95;;;;;;;6.35;78.50;100787.28;5037000;28;20440;-75
2020/12/26 09:43:51;;;;;;;7.75;1.75;;;;;;;6.38;78.44;100785.84;5037297;28;20037;-76
2020/12/26 09:46:20;;;;;;;14.50;3.88;;;;;;;6.38;78.54;100781.13;5054354;28;20037;-75
2020/12/26 09:48:48;;;;;;;14.50;2.13;;;;;;;6.40;78.39;100773.38;5054005;28;20068;-77
2020/12/26 09:51:19;;;;;;;11.65;2.30;;;;;;;6.40;78.38;100761.56;5053449;28;20037;-76
2020/12/26 09:53:49;;;;;;;14.35;3.40;;;;;;;6.41;78.71;100754.91;5053520;28;20044;-76
2020/12/26 09:56:15;;;;;;;8.80;3.00;;;;;;;6.41;78.35;100774.16;5053395;28;20075;-77
2020/12/26 09:58:44;;;;;;;20.00;3.45;;;;;;;6.42;78.70;100776.63;5053215;28;20154;-77
2020/12/26 10:01:14;;;;;;;17.05;2.65;;;;;;;6.45;78.56;100759.50;5053499;28;20545;-77
2020/12/26 10:03:42;;;;;;;17.95;2.42;;;;;;;6.48;78.25;100752.53;5035112;28;20486;-77
2020/12/26 10:06:12;;;;;;;14.10;3.47;;;;;;;6.49;78.55;100759.66;5052484;28;20045;-77
2020/12/26 10:08:39;;;;;;;13.57;3.00;;;;;;;6.49;78.63;100743.97;5053344;28;20056;-77
2020/12/26 10:11:06;;;;;;;12.40;2.42;;;;;;;6.52;78.15;100737.84;5018281;28;20037;-77
2020/12/26 10:13:32;;;;;;;17.42;4.25;;;;;;;6.54;78.30;100704.53;5052480;28;20045;-77
2020/12/26 10:15:58;;;;;;;19.02;2.80;;;;;;;6.54;78.07;100694.31;5053433;28;20041;-77
2020/12/26 10:18:25;;;;;;;19.77;3.90;;;;;;;6.51;78.23;100708.69;5053471;28;20049;-78
2020/12/26 10:20:51;;;;;;;19.30;2.83;;;;;;;6.54;78.32;100708.06;5034772;28;20060;-76
2020/12/26 10:23:18;;;;;;;10.75;2.88;;;;;;;6.56;78.24;100685.75;5052917;28;20489;-78
2020/12/26 10:25:48;;;;;;;19.13;2.95;;;;;;;6.55;78.44;100671.19;5053748;28;20047;-78
2020/12/26 10:28:18;;;;;;;21.30;4.35;;;;;;;6.54;78.38;100655.81;5055638;28;20393;-76
2020/12/26 10:30:46;;;;;;;7.70;2.58;;;;;;;6.56;78.36;100650.00;5063154;28;20037;-78
2020/12/26 10:33:13;;;;;;;16.33;2.10;;;;;;;6.56;78.49;100642.56;5052617;28;20132;-77
2020/12/26 10:35:40;;;;;;;20.60;3.95;;;;;;;6.57;78.38;100624.09;5053112;28;20123;-77
2020/12/26 10:38:06;;;;;;;10.27;2.63;;;;;;;6.58;78.44;100614.72;5053108;28;20432;-77
2020/12/26 10:40:33;;;;;;;13.75;2.60;;;;;;;6.59;78.63;100614.38;5053025;28;20064;-76
2020/12/26 10:42:59;;;;;;;13.65;2.10;;;;;;;6.58;78.59;100607.28;5052121;28;20602;-77
2020/12/26 10:45:26;;;;;;;17.75;2.40;;;;;;;6.60;78.29;100613.28;5053747;28;20396;-78
2020/12/26 10:47:53;;;;;;;15.10;2.58;;;;;;;6.61;78.43;100623.16;5052046;28;20053;-78
2020/12/26 10:50:19;;;;;;;11.75;2.67;;;;;;;6.64;78.49;100596.94;5034741;28;20060;-77
2020/12/26 10:52:46;;;;;;;18.95;4.90;;;;;;;6.66;78.44;100592.75;5053358;28;20032;-77
2020/12/26 10:55:15;;;;;;;20.13;2.97;;;;;;;6.67;78.28;100594.34;5031112;28;20084;-77
2020/12/26 10:57:43;;;;;;;18.80;5.70;;;;;;;6.68;78.47;100590.47;5034035;28;20112;-78
2020/12/26 11:00:13;;;;;;;19.58;4.57;;;;;;;6.69;78.50;100594.84;5045354;28;20477;-77
2020/12/26 11:02:40;;;;;;;19.25;5.47;;;;;;;6.71;78.26;100591.75;5049481;28;20840;-77
2020/12/26 11:05:06;;;;;;;17.52;4.95;;;;;;;6.74;78.31;100597.44;5051397;28;20044;-77
2020/12/26 11:07:33;;;;;;;18.60;5.90;;;;;;;6.77;78.39;100606.16;5040378;28;20041;-76
2020/12/26 11:10:00;;;;;;;23.20;10.55;;;;;;;6.79;78.70;100599.22;5051580;28;20045;-76
2020/12/26 11:12:27;;;;;;;37.80;13.90;;;;;;;6.82;78.58;100589.50;5052183;28;20064;-77
2020/12/26 11:14:53;;;;;;;27.23;13.00;;;;;;;6.84;78.54;100584.47;5035067;28;20052;-78
2020/12/26 11:17:20;;;;;;;16.42;4.70;;;;;;;6.84;78.64;100576.22;5050375;28;20048;-79
2020/12/26 11:19:46;;;;;;;34.20;22.60;;;;;;;6.83;78.38;100547.88;5049277;28;20391;-82
2020/12/26 11:22:13;;;;;;;16.00;6.80;;;;;;;6.86;78.38;100532.69;5033368;28;20076;-79
2020/12/26 11:24:39;;;;;;;24.60;7.55;;;;;;;6.87;78.38;100502.09;5047827;28;20489;-76
2020/12/26 11:27:06;;;;;;;21.48;4.47;;;;;;;6.90;78.42;100503.38;5050571;28;20507;-77
2020/12/26 11:29:32;;;;;;;23.23;6.20;;;;;;;6.91;78.59;100492.03;5051537;28;20480;-77
2020/12/26 11:31:58;;;;;;;10.27;2.85;;;;;;;6.91;78.21;100491.25;5050698;28;20503;-78
2020/12/26 11:34:25;;;;;;;20.60;5.22;;;;;;;6.92;78.32;100509.34;5032748;28;20416;-76
2020/12/26 11:36:51;;;;;;;15.00;4.50;;;;;;;6.95;78.32;100481.19;5021416;28;20037;-75
2020/12/26 11:39:18;;;;;;;10.18;3.15;;;;;;;6.98;78.41;100451.06;5050609;28;20087;-76